Aeroporto :
LOGIN :

Iscrizione | Disclaimer

   EN    FR    IT 

 










Sommario :    VFR   VFR Marginale   IFR   IFR Intensivo   IFR Molto Intensivo
Visibilità : 
Base nubi : 
>= 8 km
>= 3000ft
5 / 8 km
1000 / 3000 ft
1500m / 5 km
500 / 1000 ft
800 / 1500m
200 / 500 ft
< 800m
< 200 ft
Simboli :   Temporali  Nebbia  Neve Forte  Precipitazioni Forti  Vento > 20 kt
SIGMETs :   Varie  Temporali  Ghiacco  Turbolenza  Onda orograficha  Ceneri Vulcaniche







- Altitudine del aeroporto : 18 ft


LIPC - Cervia AFB Ravenna

ULTIMO METAR :
  • 221955Z 00000KT CAVOK 24/22 Q1009 RMK SCT FEW100 VIS MIN 9999 WIND THR11 00000KT WIND THR29 /////KT BLU

METARs OBSOLETI :
  • 221855Z 19003KT 9999 FEW050 25/22 Q1009 RMK BKN BKN130 VIS MIN 9999 WIND THR11 17003KT WIND THR29 /////KT BLU
  • 221755Z 15003KT 9999 FEW050 26/23 Q1009

TAF TAF LIPC
Valido dal 22 a 18 ore il 23 a 03 ore UTC


221700Z 2218/2303 29005KT 9999 SCT030
TEMPO 2218/2303 3000 TSRA FEW020CB SCT030
Nessun NOTAM noto per questo aeroporto.
1 SIGMET conosciuto per la FIR Milano (LIMM) :
 
Turbolenza severa
LIMM SIGMET 2 VALID 221930/222330 LIIP
LIMM MILANO FIR SEV TURB FCST ENTIRE FIR ABV FL280 STNR NC=



MetMap, La meteo Aeronautica in un colpo d'occhio ! - Copyright ORBIFLY Dicembre 2007 - Disclaimer

ORBIFLY MET'MAP TEAM :

Programmazione e sviluppo : Alexandra Zaïnal
Concezione e sviluppo : Baudouin d'Aumeries
Co-Programmazione e sviluppo : Marc-Olivier Méhu
Supporto tecnico e logistico : Manuel Goepfert
Aiuto per la traduzione : Arnaldo La Scala

Contatto : metmap@orbifly.com




FONTI E CREDITI :

   NOAA